Edgewood, Illinois
Current Conditions -  °F | °C
As of 6:35 AM on Thursday 23 Oct 2014 (Local Time) from K1H2 Reporting Station
Haze Haze  
Wind Chill: 36°   Ceiling: Unl
Heat Index: 36°   Visibility: 3mi
Dew Point: 34°   Wind: 0mph
Humidity: 91%   Direction: NA
Pressure: 30.23"   Gusts: NA
Location:  38.92°N, 88.66°W
Report Text: K1H2 231135Z AUTO 00000KT 3SM BR CLR 02/01 A3023 RMK AO2 T00230009
Loading
Personal Weather Stations






























Interactive Weather Map
Tropical Storm Tracking
New forecast layout! Learn more

10-Day Weather Forecast

Advertisements
Track Severe Weather on mobile